sensor_id;sensor_type;location;lat;lon;timestamp;P1;durP1;ratioP1;P2;durP2;ratioP2
75512;SDS011;64090;49.770;18.760;2023-04-25T01:11:16;5.90;;;3.80;;
75512;SDS011;64090;49.770;18.760;2023-04-25T06:32:47;5.60;;;4.20;;
75512;SDS011;64090;49.770;18.760;2023-04-25T06:36:36;5.40;;;3.50;;
75512;SDS011;64090;49.770;18.760;2023-04-25T06:40:10;6.80;;;5.00;;
75512;SDS011;64090;49.770;18.760;2023-04-25T06:56:47;5.50;;;3.70;;
75512;SDS011;64090;49.770;18.760;2023-04-25T07:04:42;5.40;;;3.40;;
75512;SDS011;64090;49.770;18.760;2023-04-25T07:08:46;7.00;;;3.90;;
75512;SDS011;64090;49.770;18.760;2023-04-25T07:12:06;7.30;;;4.20;;
75512;SDS011;64090;49.770;18.760;2023-04-25T07:16:05;5.40;;;4.10;;
75512;SDS011;64090;49.770;18.760;2023-04-25T07:19:41;5.00;;;3.50;;
75512;SDS011;64090;49.770;18.760;2023-04-25T07:23:21;5.20;;;3.30;;
75512;SDS011;64090;49.770;18.760;2023-04-25T07:26:48;7.00;;;4.30;;
75512;SDS011;64090;49.770;18.760;2023-04-25T07:30:14;4.50;;;3.00;;
75512;SDS011;64090;49.770;18.760;2023-04-25T07:33:54;6.10;;;4.20;;
75512;SDS011;64090;49.770;18.760;2023-04-25T07:37:22;4.90;;;3.60;;
75512;SDS011;64090;49.770;18.760;2023-04-25T07:40:53;3.70;;;2.90;;
75512;SDS011;64090;49.770;18.760;2023-04-25T07:44:19;5.20;;;3.70;;
75512;SDS011;64090;49.770;18.760;2023-04-25T07:47:55;6.20;;;3.30;;
75512;SDS011;64090;49.770;18.760;2023-04-25T07:51:23;5.20;;;3.70;;
75512;SDS011;64090;49.770;18.760;2023-04-25T07:54:47;4.40;;;3.40;;
75512;SDS011;64090;49.770;18.760;2023-04-25T07:58:15;6.50;;;4.80;;
75512;SDS011;64090;49.770;18.760;2023-04-25T08:01:33;4.80;;;3.10;;
75512;SDS011;64090;49.770;18.760;2023-04-25T08:04:57;5.60;;;3.50;;
75512;SDS011;64090;49.770;18.760;2023-04-25T08:08:35;4.40;;;2.40;;
75512;SDS011;64090;49.770;18.760;2023-04-25T08:12:22;4.10;;;3.00;;
75512;SDS011;64090;49.770;18.760;2023-04-25T08:15:47;3.70;;;2.20;;
75512;SDS011;64090;49.770;18.760;2023-04-25T08:19:16;3.50;;;2.20;;
75512;SDS011;64090;49.770;18.760;2023-04-25T08:22:44;4.30;;;3.00;;
75512;SDS011;64090;49.770;18.760;2023-04-25T08:26:22;4.20;;;2.90;;
75512;SDS011;64090;49.770;18.760;2023-04-25T08:29:54;4.40;;;3.60;;
75512;SDS011;64090;49.770;18.760;2023-04-25T08:33:17;4.60;;;3.00;;
75512;SDS011;64090;49.770;18.760;2023-04-25T08:36:46;4.40;;;2.30;;
75512;SDS011;64090;49.770;18.760;2023-04-25T08:40:11;5.30;;;3.50;;
75512;SDS011;64090;49.770;18.760;2023-04-25T08:43:50;5.30;;;3.60;;
75512;SDS011;64090;49.770;18.760;2023-04-25T08:47:13;5.20;;;3.20;;
75512;SDS011;64090;49.770;18.760;2023-04-25T08:50:50;5.50;;;2.50;;
75512;SDS011;64090;49.770;18.760;2023-04-25T08:54:22;5.70;;;3.20;;
75512;SDS011;64090;49.770;18.760;2023-04-25T08:57:47;5.40;;;3.70;;
75512;SDS011;64090;49.770;18.760;2023-04-25T09:01:34;4.10;;;3.10;;
75512;SDS011;64090;49.770;18.760;2023-04-25T09:04:52;4.80;;;3.20;;
75512;SDS011;64090;49.770;18.760;2023-04-25T09:08:26;5.70;;;3.50;;
75512;SDS011;64090;49.770;18.760;2023-04-25T09:11:56;4.80;;;2.70;;
75512;SDS011;64090;49.770;18.760;2023-04-25T09:15:24;3.90;;;3.00;;
75512;SDS011;64090;49.770;18.760;2023-04-25T09:19:04;4.50;;;3.10;;
75512;SDS011;64090;49.770;18.760;2023-04-25T09:22:46;3.90;;;2.80;;
75512;SDS011;64090;49.770;18.760;2023-04-25T09:26:16;4.30;;;3.30;;
75512;SDS011;64090;49.770;18.760;2023-04-25T09:29:37;4.20;;;3.60;;
75512;SDS011;64090;49.770;18.760;2023-04-25T09:33:06;5.10;;;2.40;;
75512;SDS011;64090;49.770;18.760;2023-04-25T09:36:39;3.40;;;2.50;;
75512;SDS011;64090;49.770;18.760;2023-04-25T09:40:06;4.30;;;2.60;;
75512;SDS011;64090;49.770;18.760;2023-04-25T09:43:34;4.00;;;3.00;;
75512;SDS011;64090;49.770;18.760;2023-04-25T09:47:07;3.20;;;2.40;;
75512;SDS011;64090;49.770;18.760;2023-04-25T09:51:21;4.70;;;2.30;;
75512;SDS011;64090;49.770;18.760;2023-04-25T09:54:46;4.60;;;2.40;;
75512;SDS011;64090;49.770;18.760;2023-04-25T10:02:11;4.20;;;2.10;;
75512;SDS011;64090;49.770;18.760;2023-04-25T10:06:00;4.80;;;2.40;;
75512;SDS011;64090;49.770;18.760;2023-04-25T10:10:08;3.60;;;2.40;;
75512;SDS011;64090;49.770;18.760;2023-04-25T10:16:55;3.60;;;1.70;;
75512;SDS011;64090;49.770;18.760;2023-04-25T10:20:46;4.20;;;2.90;;
75512;SDS011;64090;49.770;18.760;2023-04-25T10:24:14;6.00;;;3.50;;
75512;SDS011;64090;49.770;18.760;2023-04-25T10:27:52;3.10;;;2.40;;
75512;SDS011;64090;49.770;18.760;2023-04-25T10:31:22;3.10;;;2.30;;
75512;SDS011;64090;49.770;18.760;2023-04-25T10:35:11;3.70;;;2.50;;
75512;SDS011;64090;49.770;18.760;2023-04-25T10:38:38;4.30;;;3.30;;
75512;SDS011;64090;49.770;18.760;2023-04-25T10:42:26;4.90;;;3.40;;
75512;SDS011;64090;49.770;18.760;2023-04-25T10:46:18;4.20;;;3.00;;
75512;SDS011;64090;49.770;18.760;2023-04-25T10:49:42;5.30;;;3.30;;
75512;SDS011;64090;49.770;18.760;2023-04-25T10:53:26;3.90;;;2.70;;
75512;SDS011;64090;49.770;18.760;2023-04-25T10:57:03;3.90;;;2.30;;
75512;SDS011;64090;49.770;18.760;2023-04-25T11:00:35;4.30;;;3.20;;
75512;SDS011;64090;49.770;18.760;2023-04-25T11:04:20;3.80;;;2.30;;
75512;SDS011;64090;49.770;18.760;2023-04-25T11:07:53;4.80;;;3.20;;
75512;SDS011;64090;49.770;18.760;2023-04-25T11:11:23;3.40;;;2.70;;
75512;SDS011;64090;49.770;18.760;2023-04-25T11:15:01;3.70;;;2.90;;
75512;SDS011;64090;49.770;18.760;2023-04-25T11:18:33;3.80;;;2.80;;
75512;SDS011;64090;49.770;18.760;2023-04-25T11:22:10;5.20;;;2.70;;
75512;SDS011;64090;49.770;18.760;2023-04-25T11:25:42;4.30;;;2.70;;
75512;SDS011;64090;49.770;18.760;2023-04-25T11:29:29;4.20;;;3.20;;
75512;SDS011;64090;49.770;18.760;2023-04-25T11:32:54;5.30;;;3.20;;
75512;SDS011;64090;49.770;18.760;2023-04-25T11:36:27;4.50;;;3.40;;
75512;SDS011;64090;49.770;18.760;2023-04-25T11:40:02;5.10;;;3.50;;
75512;SDS011;64090;49.770;18.760;2023-04-25T11:43:42;4.80;;;3.10;;
75512;SDS011;64090;49.770;18.760;2023-04-25T11:47:02;6.00;;;3.80;;
75512;SDS011;64090;49.770;18.760;2023-04-25T11:50:32;5.00;;;3.30;;
75512;SDS011;64090;49.770;18.760;2023-04-25T11:54:36;4.40;;;3.40;;
75512;SDS011;64090;49.770;18.760;2023-04-25T11:58:03;6.00;;;3.60;;
75512;SDS011;64090;49.770;18.760;2023-04-25T12:01:37;4.50;;;3.10;;
75512;SDS011;64090;49.770;18.760;2023-04-25T12:05:18;3.20;;;2.40;;
75512;SDS011;64090;49.770;18.760;2023-04-25T12:09:01;3.70;;;2.60;;
75512;SDS011;64090;49.770;18.760;2023-04-25T12:16:17;4.60;;;3.10;;
75512;SDS011;64090;49.770;18.760;2023-04-25T12:20:18;4.50;;;3.00;;
75512;SDS011;64090;49.770;18.760;2023-04-25T12:23:42;3.90;;;3.00;;
75512;SDS011;64090;49.770;18.760;2023-04-25T12:28:24;5.00;;;2.80;;
75512;SDS011;64090;49.770;18.760;2023-04-25T12:32:09;4.50;;;3.30;;
75512;SDS011;64090;49.770;18.760;2023-04-25T12:35:41;4.60;;;3.00;;
75512;SDS011;64090;49.770;18.760;2023-04-25T12:39:24;5.30;;;3.60;;
75512;SDS011;64090;49.770;18.760;2023-04-25T12:42:47;4.80;;;2.90;;
75512;SDS011;64090;49.770;18.760;2023-04-25T12:52:39;5.20;;;3.80;;
75512;SDS011;64090;49.770;18.760;2023-04-25T12:56:08;6.20;;;4.20;;
75512;SDS011;64090;49.770;18.760;2023-04-25T12:59:37;5.80;;;4.00;;
75512;SDS011;64090;49.770;18.760;2023-04-25T13:02:58;5.20;;;3.70;;
75512;SDS011;64090;49.770;18.760;2023-04-25T13:06:27;4.50;;;3.30;;
75512;SDS011;64090;49.770;18.760;2023-04-25T13:09:56;5.70;;;3.40;;
75512;SDS011;64090;49.770;18.760;2023-04-25T13:13:24;4.20;;;3.50;;
75512;SDS011;64090;49.770;18.760;2023-04-25T13:16:51;3.90;;;2.80;;
75512;SDS011;64090;49.770;18.760;2023-04-25T13:20:33;4.50;;;3.20;;
75512;SDS011;64090;49.770;18.760;2023-04-25T13:23:59;6.50;;;3.90;;
75512;SDS011;64090;49.770;18.760;2023-04-25T13:27:33;5.60;;;3.40;;
75512;SDS011;64090;49.770;18.760;2023-04-25T13:31:00;4.90;;;3.60;;
75512;SDS011;64090;49.770;18.760;2023-04-25T13:34:24;4.60;;;3.30;;
75512;SDS011;64090;49.770;18.760;2023-04-25T13:38:01;5.40;;;3.50;;
75512;SDS011;64090;49.770;18.760;2023-04-25T13:41:28;5.70;;;3.50;;
75512;SDS011;64090;49.770;18.760;2023-04-25T13:44:57;4.90;;;4.00;;
75512;SDS011;64090;49.770;18.760;2023-04-25T13:48:40;5.60;;;3.50;;
75512;SDS011;64090;49.770;18.760;2023-04-25T13:52:15;5.90;;;4.20;;
75512;SDS011;64090;49.770;18.760;2023-04-25T13:55:47;4.80;;;3.60;;
75512;SDS011;64090;49.770;18.760;2023-04-25T13:59:16;5.50;;;3.80;;
75512;SDS011;64090;49.770;18.760;2023-04-25T14:02:56;4.50;;;3.50;;
75512;SDS011;64090;49.770;18.760;2023-04-25T14:06:28;5.30;;;3.80;;
75512;SDS011;64090;49.770;18.760;2023-04-25T14:09:53;7.40;;;4.10;;
75512;SDS011;64090;49.770;18.760;2023-04-25T14:13:21;4.80;;;4.00;;
75512;SDS011;64090;49.770;18.760;2023-04-25T14:16:46;5.40;;;3.80;;
75512;SDS011;64090;49.770;18.760;2023-04-25T14:20:18;6.20;;;4.20;;
75512;SDS011;64090;49.770;18.760;2023-04-25T14:24:04;6.30;;;4.40;;
75512;SDS011;64090;49.770;18.760;2023-04-25T14:27:29;7.70;;;4.50;;
75512;SDS011;64090;49.770;18.760;2023-04-25T14:31:07;6.10;;;4.30;;
75512;SDS011;64090;49.770;18.760;2023-04-25T14:34:55;6.10;;;4.30;;
75512;SDS011;64090;49.770;18.760;2023-04-25T14:38:21;4.20;;;3.30;;
75512;SDS011;64090;49.770;18.760;2023-04-25T14:41:44;7.40;;;4.10;;
75512;SDS011;64090;49.770;18.760;2023-04-25T14:45:10;6.00;;;4.30;;
75512;SDS011;64090;49.770;18.760;2023-04-25T14:48:36;3.90;;;3.00;;
75512;SDS011;64090;49.770;18.760;2023-04-25T14:52:10;4.90;;;3.90;;
75512;SDS011;64090;49.770;18.760;2023-04-25T14:55:52;6.80;;;4.10;;
75512;SDS011;64090;49.770;18.760;2023-04-25T14:59:20;5.70;;;4.20;;
75512;SDS011;64090;49.770;18.760;2023-04-25T15:02:46;5.80;;;4.10;;
75512;SDS011;64090;49.770;18.760;2023-04-25T15:06:22;5.20;;;3.90;;
75512;SDS011;64090;49.770;18.760;2023-04-25T15:09:52;6.60;;;4.60;;
75512;SDS011;64090;49.770;18.760;2023-04-25T15:13:22;5.90;;;4.10;;
75512;SDS011;64090;49.770;18.760;2023-04-25T15:23:04;6.30;;;4.80;;
75512;SDS011;64090;49.770;18.760;2023-04-25T15:26:33;6.10;;;4.10;;
75512;SDS011;64090;49.770;18.760;2023-04-25T15:29:59;5.80;;;3.90;;
75512;SDS011;64090;49.770;18.760;2023-04-25T15:33:56;7.10;;;4.60;;
75512;SDS011;64090;49.770;18.760;2023-04-25T15:37:45;7.80;;;4.60;;
75512;SDS011;64090;49.770;18.760;2023-04-25T15:41:19;9.50;;;4.80;;
75512;SDS011;64090;49.770;18.760;2023-04-25T15:44:44;6.40;;;4.20;;
75512;SDS011;64090;49.770;18.760;2023-04-25T15:48:19;6.20;;;3.90;;
75512;SDS011;64090;49.770;18.760;2023-04-25T15:56:21;8.10;;;4.00;;
75512;SDS011;64090;49.770;18.760;2023-04-25T16:05:07;19.10;;;6.50;;
75512;SDS011;64090;49.770;18.760;2023-04-25T16:25:53;5.80;;;3.40;;
75512;SDS011;64090;49.770;18.760;2023-04-25T16:38:40;11.30;;;6.30;;
75512;SDS011;64090;49.770;18.760;2023-04-25T17:14:12;10.50;;;8.80;;
75512;SDS011;64090;49.770;18.760;2023-04-25T17:31:12;12.10;;;8.10;;
75512;SDS011;64090;49.770;18.760;2023-04-25T17:40:26;14.10;;;8.50;;
75512;SDS011;64090;49.770;18.760;2023-04-25T18:32:50;18.40;;;12.90;;
75512;SDS011;64090;49.770;18.760;2023-04-25T18:58:50;20.10;;;10.90;;
